Terminal Aerodrome Forecast
Issued by NWS Lake Charles, LA

Home | Current Version | Previous Version | Text Only | Print | Product List | Glossary On
Versions: 1 2 3 4 5 6 7 8 9 10 11 12 13
000
FTUS44 KLCH 301700
TAFARA
TAF
KARA 301738Z 3018/3118 04012KT P6SM SCT150 BKN250
     FM302300 06006KT P6SM BKN150 BKN200
     FM311500 12012KT P6SM OVC200=

USA.gov is the U.S. government's official web portal to all federal, state and local government web resources and services.